createdAt,value
2023-01-19T00:00:13.214Z,98491.47
2023-01-19T00:00:44.600Z,98494.66
2023-01-19T00:01:16.006Z,98493.88
2023-01-19T00:01:47.483Z,98487.41
2023-01-19T00:02:18.955Z,98496.75
2023-01-19T00:02:50.529Z,98492.53
2023-01-19T00:03:21.963Z,98491.75
2023-01-19T00:03:53.403Z,98499.91
2023-01-19T00:04:27.815Z,98502.63
2023-01-19T00:04:59.233Z,98491.28
2023-01-19T00:05:30.721Z,98493.22
2023-01-19T00:06:02.197Z,98493.66
2023-01-19T00:06:33.695Z,98495.25
2023-01-19T00:07:05.175Z,98490.94
2023-01-19T00:07:36.647Z,98487.78
2023-01-19T00:08:08.049Z,98492.88
2023-01-19T00:08:39.574Z,98485.50
2023-01-19T00:09:10.995Z,98494.63
2023-01-19T00:09:42.426Z,98493.50
2023-01-19T00:10:13.818Z,98496.06
2023-01-19T00:10:45.250Z,98496.25
2023-01-19T00:11:16.725Z,98494.16
2023-01-19T00:11:48.135Z,98488.69
2023-01-19T00:12:19.856Z,98490.94
2023-01-19T00:12:51.256Z,98497.19
2023-01-19T00:13:22.683Z,98490.13
2023-01-19T00:13:54.097Z,98497.72
2023-01-19T00:14:25.529Z,98488.41
2023-01-19T00:14:57.037Z,98497.72
2023-01-19T00:15:28.449Z,98493.06
2023-01-19T00:15:59.945Z,98486.16
2023-01-19T00:16:31.443Z,98492.25
2023-01-19T00:17:02.894Z,98491.47
2023-01-19T00:17:34.308Z,98493.88
2023-01-19T00:18:05.666Z,98485.03
2023-01-19T00:18:37.163Z,98492.25
2023-01-19T00:19:08.604Z,98489.22
2023-01-19T00:19:40.068Z,98487.63
2023-01-19T00:20:11.464Z,98487.94
2023-01-19T00:20:42.919Z,98490.66
2023-01-19T00:21:14.396Z,98490.81
2023-01-19T00:21:45.779Z,98491.13
2023-01-19T00:22:17.247Z,98489.84
2023-01-19T00:22:48.624Z,98483.13
2023-01-19T00:23:20.166Z,98478.78
2023-01-19T00:23:51.596Z,98481.81
2023-01-19T00:24:22.957Z,98487.25
2023-01-19T00:24:54.391Z,98493.03
2023-01-19T00:25:25.819Z,98487.59
2023-01-19T00:25:57.295Z,98481.34
2023-01-19T00:26:28.834Z,98486.47
2023-01-19T00:27:00.220Z,98488.72
2023-01-19T00:27:31.704Z,98488.41
2023-01-19T00:28:03.144Z,98490.34
2023-01-19T00:28:34.672Z,98491.94
2023-01-19T00:29:06.076Z,98474.47
2023-01-19T00:29:37.517Z,98483.59
2023-01-19T00:30:08.946Z,98477.38
2023-01-19T00:30:40.361Z,98486.00
2023-01-19T00:31:11.769Z,98481.53
2023-01-19T00:31:43.262Z,98484.09
2023-01-19T00:32:14.665Z,98481.81
2023-01-19T00:32:46.070Z,98486.34
2023-01-19T00:33:17.497Z,98483.91
2023-01-19T00:33:49.022Z,98475.59
2023-01-19T00:34:20.553Z,98479.44
2023-01-19T00:34:51.946Z,98475.28
2023-01-19T00:35:23.343Z,98472.88
2023-01-19T00:35:54.765Z,98475.59
2023-01-19T00:36:26.247Z,98472.06
2023-01-19T00:36:57.764Z,98478.31
2023-01-19T00:37:29.207Z,98473.19
2023-01-19T00:38:00.700Z,98474.31
2023-01-19T00:38:32.166Z,98477.84
2023-01-19T00:39:03.571Z,98482.63
2023-01-19T00:39:34.994Z,98478.78
2023-01-19T00:40:06.380Z,98478.00
2023-01-19T00:40:37.803Z,98473.03
2023-01-19T00:41:09.206Z,98475.91
2023-01-19T00:41:40.615Z,98473.31
2023-01-19T00:42:12.050Z,98474.63
2023-01-19T00:42:43.480Z,98474.13
2023-01-19T00:43:17.941Z,98471.59
2023-01-19T00:43:49.353Z,98474.97
2023-01-19T00:44:20.913Z,98478.16
2023-01-19T00:44:52.304Z,98488.06
2023-01-19T00:45:23.813Z,98490.31
2023-01-19T00:45:55.318Z,98477.38
2023-01-19T00:46:26.840Z,98486.00
2023-01-19T00:46:58.269Z,98482.81
2023-01-19T00:47:29.790Z,98486.50
2023-01-19T00:48:01.210Z,98480.88
2023-01-19T00:48:32.603Z,98483.28
2023-01-19T00:49:04.031Z,98486.66
2023-01-19T00:49:35.457Z,98482.16
2023-01-19T00:50:06.870Z,98484.56
2023-01-19T00:50:38.241Z,98485.38
2023-01-19T00:51:09.663Z,98484.25
2023-01-19T00:51:41.078Z,98485.38
2023-01-19T00:52:12.455Z,98484.56
2023-01-19T00:52:43.942Z,98484.56
2023-01-19T00:53:15.349Z,98486.16
2023-01-19T00:53:46.738Z,98474.59
2023-01-19T00:54:18.198Z,98476.88
2023-01-19T00:54:49.624Z,98482.97
2023-01-19T00:55:21.261Z,98481.03
2023-01-19T00:55:52.702Z,98483.75
2023-01-19T00:56:24.200Z,98489.69
2023-01-19T00:56:55.568Z,98483.75
2023-01-19T00:57:26.948Z,98494.97
2023-01-19T00:57:58.377Z,98490.66
2023-01-19T00:58:29.818Z,98485.03
2023-01-19T00:59:01.219Z,98495.94
2023-01-19T00:59:32.627Z,98487.09
2023-01-19T01:00:04.015Z,98492.41
2023-01-19T01:00:35.499Z,98493.88
2023-01-19T01:01:07.030Z,98496.09
2023-01-19T01:01:45.472Z,98493.69
2023-01-19T01:02:17.803Z,98496.91
2023-01-19T01:02:49.430Z,98495.78
2023-01-19T01:03:20.943Z,98499.91
2023-01-19T01:03:52.331Z,98496.38
2023-01-19T01:04:23.939Z,98497.50
2023-01-19T01:04:55.390Z,98496.25
2023-01-19T01:05:26.791Z,98497.50
2023-01-19T01:05:58.221Z,98500.72
2023-01-19T01:06:29.723Z,98496.25
2023-01-19T01:07:01.193Z,98499.31
2023-01-19T01:07:32.606Z,98495.47
2023-01-19T01:08:04.060Z,98497.06
2023-01-19T01:08:35.472Z,98493.22
2023-01-19T01:09:06.932Z,98501.38
2023-01-19T01:09:38.360Z,98501.38
2023-01-19T01:10:09.730Z,98500.59
2023-01-19T01:10:41.136Z,98496.38
2023-01-19T01:11:12.599Z,98493.34
2023-01-19T01:11:44.094Z,98496.06
2023-01-19T01:12:15.508Z,98494.78
2023-01-19T01:12:56.686Z,98492.06
2023-01-19T01:13:30.517Z,98494.34
2023-01-19T01:14:02.217Z,98494.47
2023-01-19T01:14:33.609Z,98488.41
2023-01-19T01:15:05.165Z,98492.75
2023-01-19T01:15:36.756Z,98488.56
2023-01-19T01:16:08.253Z,98491.28
2023-01-19T01:16:39.662Z,98486.16
2023-01-19T01:17:11.145Z,98494.78
2023-01-19T01:17:42.593Z,98486.28
2023-01-19T01:18:13.990Z,98491.41
2023-01-19T01:18:45.427Z,98477.47
2023-01-19T01:19:16.893Z,98487.09
2023-01-19T01:19:48.358Z,98479.59
2023-01-19T01:20:19.732Z,98488.09
2023-01-19T01:20:51.142Z,98485.69
2023-01-19T01:21:22.721Z,98488.22
2023-01-19T01:21:54.249Z,98493.34
2023-01-19T01:22:25.727Z,98484.69
2023-01-19T01:22:57.193Z,98495.47
2023-01-19T01:23:28.696Z,98490.81
2023-01-19T01:24:00.095Z,98495.47
2023-01-19T01:24:31.550Z,98500.09
2023-01-19T01:25:03.035Z,98493.88
2023-01-19T01:25:34.420Z,98494.78
2023-01-19T01:26:05.773Z,98492.41
2023-01-19T01:26:37.172Z,98499.13
2023-01-19T01:27:08.666Z,98492.41
2023-01-19T01:27:40.149Z,98498.00
2023-01-19T01:28:11.636Z,98494.97
2023-01-19T01:28:43.052Z,98494.66
2023-01-19T01:29:14.476Z,98492.06
2023-01-19T01:29:45.907Z,98492.53
2023-01-19T01:30:17.332Z,98497.50
2023-01-19T01:30:48.745Z,98487.28
2023-01-19T01:31:20.273Z,98499.13
2023-01-19T01:31:51.733Z,98485.84
2023-01-19T01:32:23.633Z,98492.53
2023-01-19T01:32:54.998Z,98499.13
2023-01-19T01:33:39.970Z,98490.94
2023-01-19T01:34:13.052Z,98501.84
2023-01-19T01:34:44.502Z,98502.00
2023-01-19T01:35:15.951Z,98503.44
2023-01-19T01:35:47.410Z,98492.75
2023-01-19T01:36:18.869Z,98510.69
2023-01-19T01:36:50.287Z,98500.59
2023-01-19T01:37:21.791Z,98500.91
2023-01-19T01:37:53.191Z,98502.03
2023-01-19T01:38:24.566Z,98505.72
2023-01-19T01:38:55.972Z,98500.44
2023-01-19T01:39:27.375Z,98506.84
2023-01-19T01:39:58.783Z,98510.38
2023-01-19T01:40:30.180Z,98507.28
2023-01-19T01:41:01.617Z,98520.63
2023-01-19T01:41:33.020Z,98512.28
2023-01-19T01:42:04.718Z,98517.72
2023-01-19T01:42:36.294Z,98511.13
2023-01-19T01:43:07.769Z,98518.53
2023-01-19T01:43:39.153Z,98518.06
2023-01-19T01:44:10.549Z,98503.75
2023-01-19T01:44:42.004Z,98516.94
2023-01-19T01:45:13.372Z,98514.06
2023-01-19T01:45:44.749Z,98510.22
2023-01-19T01:46:16.256Z,98513.88
2023-01-19T01:46:47.674Z,98507.47
2023-01-19T01:47:19.168Z,98510.84
2023-01-19T01:47:50.606Z,98507.47
2023-01-19T01:48:22.021Z,98502.03
2023-01-19T01:48:53.404Z,98504.75
2023-01-19T01:49:24.763Z,98506.03
2023-01-19T01:49:56.222Z,98502.19
2023-01-19T01:50:27.656Z,98505.22
2023-01-19T01:50:59.143Z,98502.63
2023-01-19T01:51:30.581Z,98499.91
2023-01-19T01:52:01.964Z,98502.78
2023-01-19T01:52:33.491Z,98505.84
2023-01-19T01:53:06.017Z,98501.84
2023-01-19T01:53:39.145Z,98500.41
2023-01-19T01:54:10.579Z,98506.47
2023-01-19T01:54:42.029Z,98513.22
2023-01-19T01:55:13.454Z,98505.69
2023-01-19T01:55:44.938Z,98494.94
2023-01-19T01:56:16.354Z,98502.78
2023-01-19T01:56:47.773Z,98511.78
2023-01-19T01:57:19.180Z,98512.09
2023-01-19T01:57:50.628Z,98514.81
2023-01-19T01:58:22.065Z,98507.75
2023-01-19T01:58:53.478Z,98510.69
2023-01-19T01:59:24.998Z,98510.38
2023-01-19T01:59:56.456Z,98516.59
2023-01-19T02:00:27.981Z,98506.16
2023-01-19T02:00:59.585Z,98512.28
2023-01-19T02:01:31.124Z,98503.63
2023-01-19T02:02:02.701Z,98509.56
2023-01-19T02:02:34.207Z,98511.00
2023-01-19T02:03:05.721Z,98507.97
2023-01-19T02:03:37.228Z,98512.59
2023-01-19T02:04:08.686Z,98507.28
2023-01-19T02:04:40.133Z,98511.94
2023-01-19T02:05:11.552Z,98512.72
2023-01-19T02:05:42.989Z,98512.72
2023-01-19T02:06:14.419Z,98516.13
2023-01-19T02:06:45.853Z,98516.28
2023-01-19T02:07:17.277Z,98507.47
2023-01-19T02:07:48.720Z,98508.59
2023-01-19T02:08:20.174Z,98516.44
2023-01-19T02:08:51.636Z,98516.13
2023-01-19T02:09:23.043Z,98518.84
2023-01-19T02:09:54.439Z,98516.94
2023-01-19T02:10:25.850Z,98519.31
2023-01-19T02:10:57.264Z,98511.94
2023-01-19T02:11:28.673Z,98515.63
2023-01-19T02:12:00.105Z,98516.59
2023-01-19T02:12:31.619Z,98509.41
2023-01-19T02:13:03.341Z,98511.81
2023-01-19T02:13:34.968Z,98503.31
2023-01-19T02:14:06.360Z,98506.84
2023-01-19T02:14:37.793Z,98511.13
2023-01-19T02:15:09.181Z,98518.97
2023-01-19T02:15:40.646Z,98524.16
2023-01-19T02:16:12.003Z,98506.47
2023-01-19T02:16:43.449Z,98508.56
2023-01-19T02:17:14.863Z,98509.88
2023-01-19T02:17:46.309Z,98505.88
2023-01-19T02:18:17.663Z,98506.53
2023-01-19T02:18:49.076Z,98512.25
2023-01-19T02:19:20.511Z,98513.09
2023-01-19T02:19:51.931Z,98527.19
2023-01-19T02:20:23.321Z,98507.00
2023-01-19T02:20:54.795Z,98508.13
2023-01-19T02:21:26.236Z,98508.59
2023-01-19T02:21:57.605Z,98502.50
2023-01-19T02:22:29.046Z,98507.00
2023-01-19T02:23:00.775Z,98505.56
2023-01-19T02:23:32.368Z,98508.44
2023-01-19T02:24:03.773Z,98504.28
2023-01-19T02:24:35.250Z,98524.94
2023-01-19T02:25:06.633Z,98507.31
2023-01-19T02:25:38.067Z,98503.16
2023-01-19T02:26:09.505Z,98502.03
2023-01-19T02:26:40.916Z,98503.16
2023-01-19T02:27:12.272Z,98507.31
2023-01-19T02:27:43.691Z,98499.47
2023-01-19T02:28:15.294Z,98507.31
2023-01-19T02:28:46.721Z,98513.25
2023-01-19T02:29:18.117Z,98512.94
2023-01-19T02:29:49.517Z,98511.81
2023-01-19T02:30:20.909Z,98505.56
2023-01-19T02:30:52.407Z,98505.22
2023-01-19T02:31:23.886Z,98506.03
2023-01-19T02:31:55.371Z,98493.06
2023-01-19T02:32:26.932Z,98494.19
2023-01-19T02:32:58.803Z,98508.59
2023-01-19T02:33:30.362Z,98492.38
2023-01-19T02:34:01.803Z,98493.38
2023-01-19T02:34:33.275Z,98496.09
2023-01-19T02:35:04.664Z,98506.84
2023-01-19T02:35:36.048Z,98494.97
2023-01-19T02:36:07.462Z,98498.81
2023-01-19T02:36:38.864Z,98497.22
2023-01-19T02:37:10.246Z,98489.84
2023-01-19T02:37:41.691Z,98501.38
2023-01-19T02:38:13.079Z,98497.84
2023-01-19T02:38:44.556Z,98494.97
2023-01-19T02:39:15.945Z,98495.28
2023-01-19T02:39:47.327Z,98503.28
2023-01-19T02:40:18.744Z,98499.16
2023-01-19T02:40:50.123Z,98494.03
2023-01-19T02:41:21.552Z,98499.63
2023-01-19T02:41:52.988Z,98493.06
2023-01-19T02:42:24.371Z,98494.97
2023-01-19T02:42:55.808Z,98496.09
2023-01-19T02:43:27.240Z,98498.81
2023-01-19T02:43:58.753Z,98493.88
2023-01-19T02:44:30.241Z,98490.81
2023-01-19T02:45:01.650Z,98499.00
2023-01-19T02:45:33.061Z,98506.69
2023-01-19T02:46:04.499Z,98489.22
2023-01-19T02:46:35.908Z,98501.72
2023-01-19T02:47:07.292Z,98488.56
2023-01-19T02:47:38.699Z,98500.25
2023-01-19T02:48:10.145Z,98497.88
2023-01-19T02:48:41.538Z,98503.16
2023-01-19T02:49:12.947Z,98499.00
2023-01-19T02:49:44.560Z,98501.72
2023-01-19T02:50:15.989Z,98504.13
2023-01-19T02:50:47.526Z,98497.38
2023-01-19T02:51:18.982Z,98497.06
2023-01-19T02:51:50.465Z,98497.88
2023-01-19T02:52:21.908Z,98497.38
2023-01-19T02:52:53.336Z,98500.91
2023-01-19T02:53:24.825Z,98496.75
2023-01-19T02:53:56.200Z,98496.75
2023-01-19T02:54:27.674Z,98495.59
2023-01-19T02:54:59.066Z,98500.25
2023-01-19T02:55:30.437Z,98502.97
2023-01-19T02:56:01.875Z,98490.81
2023-01-19T02:56:33.270Z,98503.44
2023-01-19T02:57:04.669Z,98498.31
2023-01-19T02:57:36.047Z,98490.94
2023-01-19T02:58:07.426Z,98490.13
2023-01-19T02:58:38.899Z,98486.97
2023-01-19T02:59:10.304Z,98489.53
2023-01-19T02:59:41.676Z,98483.59
2023-01-19T03:00:13.161Z,98492.91
2023-01-19T03:00:44.576Z,98493.19
2023-01-19T03:01:16.165Z,98491.91
2023-01-19T03:01:47.701Z,98495.75
2023-01-19T03:02:19.346Z,98489.19
2023-01-19T03:02:50.886Z,98486.16
2023-01-19T03:03:22.377Z,98483.41
2023-01-19T03:03:53.793Z,98479.41
2023-01-19T03:04:25.240Z,98478.63
2023-01-19T03:04:56.784Z,98480.22
2023-01-19T03:05:28.240Z,98489.06
2023-01-19T03:05:59.641Z,98480.56
2023-01-19T03:06:31.046Z,98482.16
2023-01-19T03:07:02.459Z,98482.97
2023-01-19T03:07:33.866Z,98489.06
2023-01-19T03:08:05.266Z,98485.84
2023-01-19T03:08:36.754Z,98485.84
2023-01-19T03:09:08.126Z,98486.94
2023-01-19T03:09:39.530Z,98483.94
2023-01-19T03:10:10.885Z,98489.38
2023-01-19T03:10:42.258Z,98481.69
2023-01-19T03:11:13.727Z,98485.03
2023-01-19T03:11:45.071Z,98489.66
2023-01-19T03:12:16.555Z,98474.78
2023-01-19T03:12:47.953Z,98485.34
2023-01-19T03:13:19.413Z,98485.19
2023-01-19T03:13:50.811Z,98490.78
2023-01-19T03:14:22.227Z,98484.53
2023-01-19T03:14:53.614Z,98482.94
2023-01-19T03:15:25.081Z,98480.22
2023-01-19T03:15:56.616Z,98473.97
2023-01-19T03:16:28.090Z,98483.59
2023-01-19T03:16:59.501Z,98486.00
2023-01-19T03:17:31.042Z,98489.84
2023-01-19T03:18:02.432Z,98482.47
2023-01-19T03:18:33.928Z,98479.91
2023-01-19T03:19:05.304Z,98476.41
2023-01-19T03:19:36.720Z,98475.13
2023-01-19T03:20:08.174Z,98491.47
2023-01-19T03:20:39.569Z,98478.63
2023-01-19T03:21:10.932Z,98468.88
2023-01-19T03:21:42.360Z,98469.50
2023-01-19T03:22:13.747Z,98469.81
2023-01-19T03:22:45.159Z,98479.56
2023-01-19T03:23:16.544Z,98496.75
2023-01-19T03:23:47.980Z,98482.97
2023-01-19T03:24:19.378Z,98488.09
2023-01-19T03:24:50.818Z,98480.25
2023-01-19T03:25:22.265Z,98490.34
2023-01-19T03:25:53.668Z,98480.09
2023-01-19T03:26:25.080Z,98481.22
2023-01-19T03:26:56.571Z,98482.81
2023-01-19T03:27:27.988Z,98473.31
2023-01-19T03:27:59.437Z,98476.06
2023-01-19T03:28:30.918Z,98489.06
2023-01-19T03:29:02.502Z,98494.50
2023-01-19T03:29:33.854Z,98480.09
2023-01-19T03:30:05.245Z,98498.97
2023-01-19T03:30:36.669Z,98485.03
2023-01-19T03:31:08.113Z,98483.75
2023-01-19T03:31:39.501Z,98487.63
2023-01-19T03:32:10.859Z,98482.44
2023-01-19T03:32:42.254Z,98479.91
2023-01-19T03:33:13.773Z,98484.41
2023-01-19T03:33:45.157Z,98498.50
2023-01-19T03:34:16.562Z,98475.44
2023-01-19T03:34:47.998Z,98482.81
2023-01-19T03:35:19.404Z,98482.28
2023-01-19T03:35:50.887Z,98489.66
2023-01-19T03:36:22.283Z,98484.88
2023-01-19T03:36:53.687Z,98481.03
2023-01-19T03:37:25.085Z,98471.56
2023-01-19T03:37:56.472Z,98487.59
2023-01-19T03:38:27.908Z,98474.63
2023-01-19T03:38:59.394Z,98482.31
2023-01-19T03:39:30.811Z,98489.34
2023-01-19T03:40:02.190Z,98478.94
2023-01-19T03:40:33.589Z,98474.63
2023-01-19T03:41:05.021Z,98481.03
2023-01-19T03:41:36.413Z,98470.44
2023-01-19T03:42:07.823Z,98471.41
2023-01-19T03:42:39.276Z,98472.69
2023-01-19T03:43:10.675Z,98477.81
2023-01-19T03:43:42.071Z,98473.00
2023-01-19T03:44:13.531Z,98470.28
2023-01-19T03:44:45.000Z,98476.06
2023-01-19T03:45:16.392Z,98479.41
2023-01-19T03:45:47.802Z,98468.84
2023-01-19T03:46:19.231Z,98472.38
2023-01-19T03:46:50.711Z,98471.25
2023-01-19T03:47:22.146Z,98474.78
2023-01-19T03:47:53.599Z,98469.00
2023-01-19T03:48:25.017Z,98469.19
2023-01-19T03:48:56.462Z,98477.69
2023-01-19T03:49:27.955Z,98467.41
2023-01-19T03:49:59.384Z,98466.13
2023-01-19T03:50:30.810Z,98472.38
2023-01-19T03:51:02.225Z,98472.69
2023-01-19T03:51:33.801Z,98476.22
2023-01-19T03:52:05.222Z,98467.88
2023-01-19T03:52:36.648Z,98467.06
2023-01-19T03:53:08.065Z,98469.00
2023-01-19T03:53:39.475Z,98467.88
2023-01-19T03:54:10.922Z,98477.81
2023-01-19T03:54:42.413Z,98475.41
2023-01-19T03:55:13.838Z,98466.59
2023-01-19T03:55:45.227Z,98478.28
2023-01-19T03:56:16.680Z,98472.84
2023-01-19T03:56:48.113Z,98475.91
2023-01-19T03:57:19.528Z,98468.38
2023-01-19T03:57:50.989Z,98471.25
2023-01-19T03:58:22.381Z,98477.00
2023-01-19T03:58:55.552Z,98481.66
2023-01-19T03:59:27.612Z,98471.72
2023-01-19T03:59:59.079Z,98473.00
2023-01-19T04:00:30.499Z,98468.84
2023-01-19T04:01:01.912Z,98469.31
2023-01-19T04:01:33.687Z,98459.41
2023-01-19T04:02:05.287Z,98471.56
2023-01-19T04:02:36.721Z,98482.63
2023-01-19T04:03:08.189Z,98472.38
2023-01-19T04:03:39.697Z,98469.31
2023-01-19T04:04:11.042Z,98473.31
2023-01-19T04:04:42.476Z,98473.31
2023-01-19T04:05:13.914Z,98472.38
2023-01-19T04:05:45.329Z,98467.06
2023-01-19T04:06:16.787Z,98476.69
2023-01-19T04:06:48.195Z,98469.66
2023-01-19T04:07:19.670Z,98476.84
2023-01-19T04:07:51.068Z,98482.47
2023-01-19T04:08:22.456Z,98474.63
2023-01-19T04:08:56.467Z,98470.91
2023-01-19T04:09:27.878Z,98476.38
2023-01-19T04:09:59.267Z,98477.16
2023-01-19T04:10:30.719Z,98475.56
2023-01-19T04:11:02.126Z,98468.53
2023-01-19T04:11:33.527Z,98471.56
2023-01-19T04:12:04.979Z,98472.22
2023-01-19T04:12:36.368Z,98478.78
2023-01-19T04:13:07.775Z,98472.69
2023-01-19T04:13:39.160Z,98473.97
2023-01-19T04:14:10.602Z,98470.28
2023-01-19T04:14:42.017Z,98471.25
2023-01-19T04:15:13.425Z,98477.34
2023-01-19T04:15:44.928Z,98478.94
2023-01-19T04:16:16.496Z,98476.22
2023-01-19T04:16:47.965Z,98472.84
2023-01-19T04:17:19.345Z,98466.44
2023-01-19T04:17:50.770Z,98474.63
2023-01-19T04:18:22.163Z,98465.31
2023-01-19T04:18:53.582Z,98472.38
2023-01-19T04:19:25.020Z,98462.13
2023-01-19T04:19:56.495Z,98470.31
2023-01-19T04:20:27.911Z,98459.72
2023-01-19T04:20:59.392Z,98460.69
2023-01-19T04:21:30.791Z,98465.97
2023-01-19T04:22:02.236Z,98464.69
2023-01-19T04:22:33.651Z,98477.00
2023-01-19T04:23:05.034Z,98454.09
2023-01-19T04:23:36.517Z,98464.06
2023-01-19T04:24:08.005Z,98470.31
2023-01-19T04:24:39.405Z,98465.66
2023-01-19T04:25:10.791Z,98473.31
2023-01-19T04:25:42.220Z,98462.13
2023-01-19T04:26:13.665Z,98467.88
2023-01-19T04:26:45.086Z,98471.25
2023-01-19T04:27:16.515Z,98467.41
2023-01-19T04:27:47.960Z,98470.75
2023-01-19T04:28:19.358Z,98469.00
2023-01-19T04:28:50.853Z,98476.22
2023-01-19T04:29:22.357Z,98474.44
2023-01-19T04:29:53.749Z,98467.72
2023-01-19T04:30:25.112Z,98465.47
2023-01-19T04:30:56.604Z,98467.06
2023-01-19T04:31:28.129Z,98458.44
2023-01-19T04:31:59.577Z,98463.06
2023-01-19T04:32:30.986Z,98464.19
2023-01-19T04:33:02.737Z,98467.72
2023-01-19T04:33:34.372Z,98468.53
2023-01-19T04:34:05.828Z,98457.78
2023-01-19T04:34:37.275Z,98467.41
2023-01-19T04:35:08.709Z,98457.63
2023-01-19T04:35:40.136Z,98467.25
2023-01-19T04:36:11.530Z,98463.88
2023-01-19T04:36:42.911Z,98470.13
2023-01-19T04:37:14.360Z,98461.63
2023-01-19T04:37:45.754Z,98460.50
2023-01-19T04:38:17.200Z,98467.88
2023-01-19T04:38:48.618Z,98467.06
2023-01-19T04:39:20.116Z,98463.06
2023-01-19T04:39:51.561Z,98455.22
2023-01-19T04:40:22.945Z,98456.34
2023-01-19T04:40:54.408Z,98465.78
2023-01-19T04:41:25.801Z,98463.06
2023-01-19T04:41:57.441Z,98457.16
2023-01-19T04:42:31.905Z,98461.63
2023-01-19T04:43:03.610Z,98459.88
2023-01-19T04:43:35.217Z,98456.03
2023-01-19T04:44:06.663Z,98461.81
2023-01-19T04:44:38.145Z,98470.31
2023-01-19T04:45:09.595Z,98474.63
2023-01-19T04:45:40.977Z,98460.84
2023-01-19T04:46:12.371Z,98471.72
2023-01-19T04:46:43.805Z,98452.66
2023-01-19T04:47:15.233Z,98463.88
2023-01-19T04:47:46.605Z,98464.06
2023-01-19T04:48:17.992Z,98469.50
2023-01-19T04:48:49.393Z,98468.19
2023-01-19T04:49:20.900Z,98461.00
2023-01-19T04:49:52.343Z,98474.63
2023-01-19T04:50:23.738Z,98466.78
2023-01-19T04:50:55.145Z,98464.06
2023-01-19T04:51:26.563Z,98464.53
2023-01-19T04:51:58.023Z,98484.41
2023-01-19T04:52:29.412Z,98475.75
2023-01-19T04:53:01.120Z,98461.47
2023-01-19T04:53:32.761Z,98467.88
2023-01-19T04:54:04.259Z,98467.41
2023-01-19T04:54:35.798Z,98465.81
2023-01-19T04:55:07.298Z,98467.75
2023-01-19T04:55:38.771Z,98462.44
2023-01-19T04:56:10.212Z,98469.50
2023-01-19T04:56:41.598Z,98467.41
2023-01-19T04:57:13.246Z,98467.25
2023-01-19T04:57:44.673Z,98474.31
2023-01-19T04:58:16.103Z,98471.72
2023-01-19T04:58:47.501Z,98480.69
2023-01-19T04:59:18.890Z,98467.59
2023-01-19T04:59:50.348Z,98456.50
2023-01-19T05:00:21.737Z,98475.25
2023-01-19T05:00:53.234Z,98459.22
2023-01-19T05:01:24.735Z,98464.06
2023-01-19T05:01:56.249Z,98467.88
2023-01-19T05:02:27.798Z,98463.56
2023-01-19T05:02:59.817Z,98460.84
2023-01-19T05:03:31.585Z,98460.03
2023-01-19T05:04:02.969Z,98471.72
2023-01-19T05:04:34.457Z,98448.19
2023-01-19T05:05:05.843Z,98472.72
2023-01-19T05:05:37.233Z,98456.38
2023-01-19T05:06:08.659Z,98455.91
2023-01-19T05:06:40.091Z,98461.00
2023-01-19T05:07:11.561Z,98461.81
2023-01-19T05:07:43.024Z,98450.91
2023-01-19T05:08:14.443Z,98451.41
2023-01-19T05:08:45.850Z,98464.34
2023-01-19T05:09:17.283Z,98466.13
2023-01-19T05:09:48.763Z,98466.91
2023-01-19T05:10:20.228Z,98453.97
2023-01-19T05:10:51.631Z,98457.78
2023-01-19T05:11:23.101Z,98462.94
2023-01-19T05:11:54.517Z,98466.28
2023-01-19T05:12:25.930Z,98461.34
2023-01-19T05:12:57.321Z,98466.28
2023-01-19T05:13:28.725Z,98466.78
2023-01-19T05:14:00.135Z,98463.75
2023-01-19T05:14:31.491Z,98467.25
2023-01-19T05:15:02.962Z,98473.31
2023-01-19T05:15:34.405Z,98462.91
2023-01-19T05:16:05.847Z,98474.78
2023-01-19T05:16:37.276Z,98467.72
2023-01-19T05:17:08.654Z,98472.22
2023-01-19T05:17:40.199Z,98465.16
2023-01-19T05:18:11.678Z,98468.88
2023-01-19T05:18:43.056Z,98474.78
2023-01-19T05:19:14.562Z,98463.75
2023-01-19T05:19:46.009Z,98469.19
2023-01-19T05:20:17.528Z,98477.16
2023-01-19T05:20:48.962Z,98465.47
2023-01-19T05:21:20.359Z,98471.56
2023-01-19T05:21:51.733Z,98469.50
2023-01-19T05:22:23.119Z,98469.50
2023-01-19T05:22:54.646Z,98475.75
2023-01-19T05:23:26.059Z,98475.56
2023-01-19T05:23:57.436Z,98471.56
2023-01-19T05:24:29.021Z,98475.91
2023-01-19T05:25:00.412Z,98473.31
2023-01-19T05:25:31.937Z,98474.97
2023-01-19T05:26:03.340Z,98478.63
2023-01-19T05:26:34.709Z,98473.66
2023-01-19T05:27:06.152Z,98468.38
2023-01-19T05:27:37.567Z,98464.06
2023-01-19T05:28:09.059Z,98472.22
2023-01-19T05:28:40.404Z,98469.81
2023-01-19T05:29:11.818Z,98460.84
2023-01-19T05:29:43.208Z,98464.84
2023-01-19T05:30:14.682Z,98468.69
2023-01-19T05:30:46.161Z,98465.97
2023-01-19T05:31:19.498Z,98468.06
2023-01-19T05:31:51.177Z,98480.25
2023-01-19T05:32:22.573Z,98481.50
2023-01-19T05:32:53.966Z,98467.59
2023-01-19T05:33:25.392Z,98474.31
2023-01-19T05:33:56.833Z,98477.97
2023-01-19T05:34:28.207Z,98472.72
2023-01-19T05:34:59.618Z,98475.59
2023-01-19T05:35:36.242Z,98474.31
2023-01-19T05:36:08.000Z,98475.56
2023-01-19T05:36:39.453Z,98461.94
2023-01-19T05:37:10.842Z,98473.31
2023-01-19T05:37:42.225Z,98477.97
2023-01-19T05:38:14.544Z,98473.97
2023-01-19T05:38:47.001Z,98473.31
2023-01-19T05:39:18.397Z,98462.44
2023-01-19T05:39:49.835Z,98464.69
2023-01-19T05:40:21.210Z,98479.41
2023-01-19T05:40:52.607Z,98473.97
2023-01-19T05:41:23.992Z,98474.13
2023-01-19T05:41:55.506Z,98470.31
2023-01-19T05:42:26.957Z,98477.97
2023-01-19T05:42:58.763Z,98478.28
2023-01-19T05:43:30.401Z,98469.66
2023-01-19T05:44:01.799Z,98472.38
2023-01-19T05:44:33.185Z,98475.75
2023-01-19T05:45:04.615Z,98475.91
2023-01-19T05:45:36.013Z,98480.22
2023-01-19T05:46:07.437Z,98468.19
2023-01-19T05:46:38.888Z,98471.13
2023-01-19T05:47:10.341Z,98476.38
2023-01-19T05:47:41.751Z,98468.03
2023-01-19T05:48:13.243Z,98469.31
2023-01-19T05:48:44.670Z,98475.56
2023-01-19T05:49:16.159Z,98477.97
2023-01-19T05:49:47.571Z,98473.97
2023-01-19T05:50:19.135Z,98473.84
2023-01-19T05:50:50.571Z,98473.31
2023-01-19T05:51:22.002Z,98467.41
2023-01-19T05:51:53.398Z,98489.38
2023-01-19T05:52:24.824Z,98472.06
2023-01-19T05:52:56.188Z,98470.00
2023-01-19T05:53:27.587Z,98477.69
2023-01-19T05:53:58.982Z,98470.13
2023-01-19T05:54:30.510Z,98473.50
2023-01-19T05:55:01.957Z,98466.59
2023-01-19T05:55:33.375Z,98471.41
2023-01-19T05:56:04.782Z,98464.84
2023-01-19T05:56:36.210Z,98475.91
2023-01-19T05:57:07.654Z,98467.72
2023-01-19T05:57:39.132Z,98465.31
2023-01-19T05:58:10.570Z,98469.00
2023-01-19T05:58:42.208Z,98470.75
2023-01-19T05:59:13.639Z,98475.09
2023-01-19T05:59:45.067Z,98462.59
2023-01-19T06:00:16.760Z,98471.25
2023-01-19T06:00:48.163Z,98477.00
2023-01-19T06:01:19.648Z,98474.78
2023-01-19T06:01:51.335Z,98470.44
2023-01-19T06:02:22.856Z,98466.44
2023-01-19T06:02:54.262Z,98478.47
2023-01-19T06:03:25.778Z,98464.84
2023-01-19T06:03:57.255Z,98476.53
2023-01-19T06:04:28.641Z,98468.53
2023-01-19T06:05:00.130Z,98470.13
2023-01-19T06:05:31.519Z,98481.66
2023-01-19T06:06:02.948Z,98484.72
2023-01-19T06:06:34.350Z,98471.56
2023-01-19T06:07:05.731Z,98477.81
2023-01-19T06:07:37.215Z,98475.41
2023-01-19T06:08:08.642Z,98474.63
2023-01-19T06:08:40.062Z,98476.06
2023-01-19T06:09:11.516Z,98479.25
2023-01-19T06:09:43.008Z,98471.72
2023-01-19T06:10:14.545Z,98479.91